createdAt,value
2023-05-14T00:01:14.909Z,11.87
2023-05-14T00:06:18.544Z,11.83
2023-05-14T00:11:21.863Z,11.73
2023-05-14T00:16:25.548Z,11.72
2023-05-14T00:21:28.999Z,11.71
2023-05-14T00:26:32.489Z,11.65
2023-05-14T00:31:36.105Z,11.60
2023-05-14T00:36:39.550Z,11.55
2023-05-14T00:41:42.921Z,11.46
2023-05-14T00:46:46.511Z,11.36
2023-05-14T00:51:50.320Z,11.38
2023-05-14T00:56:57.157Z,11.39
2023-05-14T01:02:00.710Z,11.30
2023-05-14T01:07:17.796Z,11.19
2023-05-14T01:12:29.947Z,11.12
2023-05-14T01:17:38.718Z,11.09
2023-05-14T01:22:47.900Z,11.05
2023-05-14T01:28:04.084Z,11.05
2023-05-14T01:33:13.526Z,10.97
2023-05-14T01:38:19.153Z,10.92
2023-05-14T01:43:25.642Z,10.85
2023-05-14T01:48:30.126Z,10.80
2023-05-14T01:53:35.061Z,10.80
2023-05-14T01:58:58.652Z,10.79
2023-05-14T02:04:02.181Z,10.74
2023-05-14T02:09:05.748Z,10.69
2023-05-14T02:14:09.208Z,10.64
2023-05-14T02:19:12.815Z,10.55
2023-05-14T02:24:16.121Z,10.47
2023-05-14T02:29:19.645Z,10.46
2023-05-14T02:34:23.512Z,10.52
2023-05-14T02:39:27.191Z,10.52
2023-05-14T02:44:31.907Z,10.41
2023-05-14T02:49:35.279Z,10.31
2023-05-14T02:54:38.640Z,10.31
2023-05-14T02:59:41.853Z,10.40
2023-05-14T03:04:45.631Z,10.45
2023-05-14T03:09:49.009Z,10.41
2023-05-14T03:14:52.278Z,10.30
2023-05-14T03:19:55.674Z,10.24
2023-05-14T03:24:59.125Z,10.26
2023-05-14T03:30:02.526Z,10.27
2023-05-14T03:35:06.620Z,10.34
2023-05-14T03:40:21.758Z,10.45
2023-05-14T03:45:27.127Z,10.47
2023-05-14T03:50:30.712Z,10.45
2023-05-14T03:55:34.170Z,10.51
2023-05-14T04:00:38.091Z,10.62
2023-05-14T04:05:41.549Z,10.76
2023-05-14T04:10:47.997Z,10.91
2023-05-14T04:15:51.699Z,11.08
2023-05-14T04:20:55.009Z,11.26
2023-05-14T04:25:58.883Z,11.46
2023-05-14T04:31:02.121Z,11.77
2023-05-14T04:36:05.964Z,12.09
2023-05-14T04:41:09.188Z,12.33
2023-05-14T04:46:14.087Z,12.51
2023-05-14T04:51:17.573Z,12.67
2023-05-14T04:56:21.597Z,12.87
2023-05-14T05:01:25.064Z,13.08
2023-05-14T05:06:28.582Z,13.43
2023-05-14T05:11:31.821Z,13.74
2023-05-14T05:16:35.392Z,13.94
2023-05-14T05:21:40.909Z,14.09
2023-05-14T05:26:44.311Z,14.34
2023-05-14T05:31:48.635Z,14.75
2023-05-14T05:36:52.003Z,15.13
2023-05-14T05:41:55.321Z,15.38
2023-05-14T05:46:58.763Z,15.45
2023-05-14T05:52:02.219Z,15.58
2023-05-14T05:57:08.811Z,16.05
2023-05-14T06:02:12.073Z,16.80
2023-05-14T06:07:15.437Z,17.46
2023-05-14T06:12:18.630Z,17.71
2023-05-14T06:17:22.305Z,17.61
2023-05-14T06:22:25.676Z,17.65
2023-05-14T06:27:28.911Z,17.90
2023-05-14T06:32:32.334Z,18.21
2023-05-14T06:37:50.415Z,18.37
2023-05-14T06:42:56.344Z,18.48
2023-05-14T06:47:59.643Z,18.75
2023-05-14T06:53:03.059Z,18.95
2023-05-14T06:58:10.567Z,19.22
2023-05-14T07:03:13.860Z,19.48
2023-05-14T07:08:17.198Z,19.68
2023-05-14T07:13:20.577Z,19.77
2023-05-14T07:18:24.239Z,19.90
2023-05-14T07:23:27.566Z,19.91
2023-05-14T07:28:30.786Z,20.07
2023-05-14T07:33:34.122Z,20.19
2023-05-14T07:38:38.002Z,20.25
2023-05-14T07:43:41.294Z,20.35
2023-05-14T07:48:44.528Z,20.39
2023-05-14T07:53:47.798Z,20.41
2023-05-14T07:58:51.627Z,20.51
2023-05-14T08:03:55.118Z,20.59
2023-05-14T08:08:58.475Z,20.74
2023-05-14T08:14:01.678Z,20.88
2023-05-14T08:19:05.011Z,20.98
2023-05-14T08:24:08.445Z,21.07
2023-05-14T08:29:13.416Z,21.19
2023-05-14T08:34:18.695Z,21.26
2023-05-14T08:39:22.262Z,21.31
2023-05-14T08:44:36.438Z,21.30
2023-05-14T08:49:45.116Z,21.39
2023-05-14T08:54:51.476Z,21.54
2023-05-14T08:59:55.015Z,21.63
2023-05-14T09:05:00.311Z,21.70
2023-05-14T09:10:04.694Z,21.92
2023-05-14T09:15:08.827Z,22.09
2023-05-14T09:20:13.166Z,22.10
2023-05-14T09:25:16.578Z,22.17
2023-05-14T09:30:19.926Z,22.30
2023-05-14T09:35:25.115Z,22.42
2023-05-14T09:40:29.190Z,22.52
2023-05-14T09:45:32.765Z,22.60
2023-05-14T09:50:42.998Z,22.62
2023-05-14T09:55:46.882Z,22.73
2023-05-14T10:01:13.505Z,22.85
2023-05-14T10:07:12.326Z,22.94
2023-05-14T10:12:58.766Z,23.00
2023-05-14T10:18:40.607Z,22.96
2023-05-14T10:24:05.710Z,22.90
2023-05-14T10:35:13.395Z,22.83
2023-05-14T10:40:24.949Z,22.82
2023-05-14T10:45:33.936Z,22.82
2023-05-14T10:50:40.097Z,22.90
2023-05-14T10:55:44.315Z,22.90
2023-05-14T11:00:50.168Z,22.72
2023-05-14T11:05:54.956Z,22.53
2023-05-14T11:10:58.410Z,22.53
2023-05-14T11:16:15.044Z,22.72
2023-05-14T11:21:25.533Z,22.92
2023-05-14T11:26:28.969Z,23.06
2023-05-14T11:31:32.431Z,23.15
2023-05-14T11:36:37.199Z,23.22
2023-05-14T11:41:45.770Z,23.32
2023-05-14T11:46:59.469Z,23.42
2023-05-14T11:52:07.456Z,23.45
2023-05-14T11:57:19.773Z,23.31
2023-05-14T12:02:23.518Z,23.29
2023-05-14T12:07:30.260Z,23.32
2023-05-14T12:12:37.425Z,23.26
2023-05-14T12:17:41.330Z,23.27
2023-05-14T12:22:44.591Z,23.31
2023-05-14T12:27:47.939Z,23.30
2023-05-14T12:32:53.065Z,23.28
2023-05-14T12:38:02.577Z,23.42
2023-05-14T12:43:08.463Z,23.53
2023-05-14T12:48:18.069Z,23.59
2023-05-14T12:53:33.217Z,23.68
2023-05-14T12:58:57.297Z,23.80
2023-05-14T13:04:01.023Z,23.93
2023-05-14T13:09:04.547Z,23.89
2023-05-14T13:14:17.858Z,23.90
2023-05-14T13:19:28.080Z,23.95
2023-05-14T13:24:31.585Z,23.91
2023-05-14T13:29:47.029Z,23.86
2023-05-14T13:34:53.132Z,23.82
2023-05-14T13:40:20.874Z,23.93
2023-05-14T13:45:35.585Z,24.07
2023-05-14T13:50:38.822Z,23.87
2023-05-14T13:55:56.523Z,23.76
2023-05-14T14:01:00.026Z,23.63
2023-05-14T14:06:18.672Z,23.53
2023-05-14T14:11:22.101Z,23.45
2023-05-14T14:16:25.410Z,23.27
2023-05-14T14:21:51.815Z,23.03
2023-05-14T14:27:02.506Z,22.95
2023-05-14T14:32:06.349Z,22.98
2023-05-14T14:37:13.040Z,22.99
2023-05-14T14:42:22.428Z,23.06
2023-05-14T14:47:25.719Z,23.08
2023-05-14T14:52:29.245Z,23.16
2023-05-14T15:03:33.515Z,23.21
2023-05-14T15:08:49.348Z,23.19
2023-05-14T15:13:59.096Z,23.08
2023-05-14T15:19:05.090Z,22.94
2023-05-14T15:24:25.248Z,22.89
2023-05-14T15:29:55.868Z,22.88
2023-05-14T15:35:01.989Z,22.78
2023-05-14T15:40:15.142Z,22.63
2023-05-14T15:45:21.225Z,22.54
2023-05-14T15:50:49.656Z,22.52
2023-05-14T15:56:05.684Z,22.46
2023-05-14T16:01:40.457Z,22.39
2023-05-14T16:07:01.874Z,22.40
2023-05-14T16:12:23.152Z,22.48
2023-05-14T16:18:25.353Z,22.55
2023-05-14T16:48:23.256Z,22.51
2023-05-14T16:54:05.672Z,22.43
2023-05-14T17:12:32.697Z,22.17
2023-05-14T17:18:53.191Z,22.01
2023-05-14T17:24:39.121Z,21.86
2023-05-14T17:29:59.898Z,21.76
2023-05-14T17:35:10.507Z,21.64
2023-05-14T17:41:03.228Z,21.53
2023-05-14T17:46:53.832Z,21.42
2023-05-14T17:52:33.377Z,21.31
2023-05-14T17:57:54.247Z,21.21
2023-05-14T18:03:37.832Z,21.10
2023-05-14T18:14:32.547Z,20.87
2023-05-14T18:19:36.776Z,20.74
2023-05-14T18:25:07.852Z,20.60
2023-05-14T18:30:39.945Z,20.35
2023-05-14T18:35:49.688Z,20.17
2023-05-14T18:40:52.940Z,20.00
2023-05-14T18:45:56.282Z,19.84
2023-05-14T18:51:18.192Z,19.69
2023-05-14T18:56:25.704Z,19.49
2023-05-14T19:01:51.406Z,19.30
2023-05-14T19:07:00.634Z,19.15
2023-05-14T19:12:09.943Z,18.99
2023-05-14T19:17:31.827Z,18.83
2023-05-14T19:40:50.925Z,18.05
2023-05-14T19:46:12.329Z,17.96
2023-05-14T19:51:15.730Z,17.91
2023-05-14T19:56:19.190Z,17.89
2023-05-14T20:01:22.752Z,17.89
2023-05-14T20:06:26.287Z,17.88
2023-05-14T20:11:29.453Z,17.86
2023-05-14T20:16:32.683Z,17.77
2023-05-14T20:21:35.989Z,17.68
2023-05-14T20:26:39.215Z,17.59
2023-05-14T20:31:42.554Z,17.56
2023-05-14T20:36:46.107Z,17.56
2023-05-14T20:41:49.598Z,17.60
2023-05-14T20:46:53.174Z,17.68
2023-05-14T20:51:56.602Z,17.73
2023-05-14T20:56:59.989Z,17.77
2023-05-14T21:02:03.940Z,17.82
2023-05-14T21:07:30.409Z,17.87
2023-05-14T21:12:33.700Z,17.88
2023-05-14T21:17:37.090Z,17.90
2023-05-14T21:22:40.825Z,17.92
2023-05-14T21:27:44.099Z,17.93
2023-05-14T21:32:47.623Z,17.93
2023-05-14T21:37:51.692Z,17.91
2023-05-14T21:42:55.039Z,17.87
2023-05-14T21:47:58.748Z,17.85
2023-05-14T21:53:12.559Z,17.82
2023-05-14T21:58:15.919Z,17.79
2023-05-14T22:03:19.531Z,17.78
2023-05-14T22:08:23.920Z,17.76
2023-05-14T22:13:27.518Z,17.72
2023-05-14T22:18:31.352Z,17.71
2023-05-14T22:23:34.549Z,17.69
2023-05-14T22:28:42.911Z,17.67
2023-05-14T22:33:46.215Z,17.65
2023-05-14T22:38:49.375Z,17.63
2023-05-14T22:43:52.660Z,17.59
2023-05-14T22:48:56.289Z,17.55
2023-05-14T22:53:59.448Z,17.53
2023-05-14T22:59:02.649Z,17.50
2023-05-14T23:04:06.025Z,17.48
2023-05-14T23:09:09.818Z,17.46
2023-05-14T23:14:13.012Z,17.41
2023-05-14T23:19:16.513Z,17.37
2023-05-14T23:24:19.942Z,17.33
2023-05-14T23:29:23.241Z,17.30
2023-05-14T23:34:27.242Z,17.25
2023-05-14T23:39:30.778Z,17.21
2023-05-14T23:44:34.059Z,17.16
2023-05-14T23:49:37.580Z,17.13
2023-05-14T23:54:40.925Z,17.10
2023-05-14T23:59:44.247Z,17.05
